Rock Falls, IL

8:35 AM CDT on October 24, 2014 (GMT -0500)
Snavely Subdivision (2.0mi NE Sterling) | Change Station
CLOSE
Current Station
Personal Weather Station
Location: Sterling, IL
Elevation: 715 ft
Nearby Weather Stations
Active Advisory: Special Statement

Elev 715 ft 41.82 °N, 89.67 °W | Updated 1 second ago

Overcast
Overcast
50.3 °F
Feels Like 50.3 °F
N
0.0
Wind Variable Wind from SSW
Gusts 0.0 mph

Today
High -- | Low -- °F
--% Chance of Precip.
Yesterday
High -- | Low -- °F
Precip. -- in
7:21 AM 6:03 PM
New Moon, 0% visible
Pressure 30.08 in
Visibility 0.5 miles
Clouds Overcast 300 ft
Dew Point 50 °F
Humidity 99%
Rainfall 0.00 in
Snow Depth Not available.
UV 0 out of 12
Pollen 1.40 out of 12
Air Quality Not available.
Flu Activity No Activity
METAR KSQI 241315Z AUTO 11003KT 1/2SM OVC003 07/06 A3008 RMK AO1

More Conditions Fewer Conditions

Pressure 30.08 in
Visibility 0.5 miles
Clouds Overcast 300 ft
Dew Point 50 °F
Humidity 99%
Rainfall 0.00 in
Snow Depth Not available.
UV 0 out of 12
Pollen 1.40 out of 12
Air Quality Not available.
Flu Activity No Activity
METAR KSQI 241315Z AUTO 11003KT 1/2SM OVC003 07/06 A3008 RMK AO1

More Conditions Fewer Conditions

10-Day Weather Forecast

Almanac

Astronomy

Oct. 24, 2014 Rise Set
Actual Time 7:21 AM CDT 6:03 PM CDT
Civil Twilight 6:52 AM CDT 6:32 PM CDT
Nautical Twilight 6:20 AM CDT 7:04 PM CDT
Astronomical Twilight 5:48 AM CDT 7:36 PM CDT
Moon 8:00 AM CDT 6:43 PM CDT
Length of Visible Light 11h 39m
Length of Day
10h 42m
Tomorrow will be 2m 35s shorter.
New Moon, 0% of the Moon is Illuminated
Today
New Moon
Oct 30
First Quarter
Nov 6
Full
Nov 14
Last Quarter
Nov 22
New

Today's Extremes

State Highs State Lows

Community

WunderPhotos

Upload Photos

1,764,550 photos uploaded!

WunderBlogs® & News

Nearby

Snow Depth

Station Depth Elevation
No new snow has been reported.

Earthquake Activity

City Distance Mag. Time & Date
No recent earthquake activity has been reported nearby.
Minimum magnitude displayed is 2.5.

Coastal Water Temperatures

Place Temperature
No Stations Reporting

Nearby Weather Stations